sensor_id;sensor_type;location;lat;lon;timestamp;temperature;humidity
42037;DHT22;30340;52.004;5.908;2022-09-09T00:04:28;16.80;81.60
42037;DHT22;30340;52.004;5.908;2022-09-09T00:15:01;16.80;81.40
42037;DHT22;30340;52.004;5.908;2022-09-09T00:17:38;16.80;81.70
42037;DHT22;30340;52.004;5.908;2022-09-09T00:20:28;16.80;81.70
42037;DHT22;30340;52.004;5.908;2022-09-09T00:23:09;16.90;81.50
42037;DHT22;30340;52.004;5.908;2022-09-09T00:25:42;16.90;81.20
42037;DHT22;30340;52.004;5.908;2022-09-09T00:28:18;16.90;80.80
42037;DHT22;30340;52.004;5.908;2022-09-09T00:30:43;16.90;81.10
42037;DHT22;30340;52.004;5.908;2022-09-09T00:33:13;16.90;81.30
42037;DHT22;30340;52.004;5.908;2022-09-09T00:35:52;16.80;81.60
42037;DHT22;30340;52.004;5.908;2022-09-09T00:38:32;16.90;81.60
42037;DHT22;30340;52.004;5.908;2022-09-09T00:41:11;16.90;81.40
42037;DHT22;30340;52.004;5.908;2022-09-09T00:43:40;16.90;81.30
42037;DHT22;30340;52.004;5.908;2022-09-09T00:49:44;17.00;81.20
42037;DHT22;30340;52.004;5.908;2022-09-09T00:52:47;17.00;81.10
42037;DHT22;30340;52.004;5.908;2022-09-09T00:55:21;17.00;81.20
42037;DHT22;30340;52.004;5.908;2022-09-09T00:57:52;17.00;81.20
42037;DHT22;30340;52.004;5.908;2022-09-09T01:00:22;17.00;81.20
42037;DHT22;30340;52.004;5.908;2022-09-09T01:07:58;16.90;81.20
42037;DHT22;30340;52.004;5.908;2022-09-09T01:10:42;16.90;81.20
42037;DHT22;30340;52.004;5.908;2022-09-09T01:13:24;16.90;81.10
42037;DHT22;30340;52.004;5.908;2022-09-09T01:15:50;16.90;81.00
42037;DHT22;30340;52.004;5.908;2022-09-09T01:18:21;16.90;81.20
42037;DHT22;30340;52.004;5.908;2022-09-09T01:26:43;16.80;81.20
42037;DHT22;30340;52.004;5.908;2022-09-09T01:29:11;16.80;81.30
42037;DHT22;30340;52.004;5.908;2022-09-09T01:31:42;16.70;81.30
42037;DHT22;30340;52.004;5.908;2022-09-09T01:34:15;16.70;81.30
42037;DHT22;30340;52.004;5.908;2022-09-09T01:39:06;16.70;81.40
42037;DHT22;30340;52.004;5.908;2022-09-09T01:41:32;16.70;81.20
42037;DHT22;30340;52.004;5.908;2022-09-09T01:43:57;16.60;81.30
42037;DHT22;30340;52.004;5.908;2022-09-09T01:46:23;16.60;81.50
42037;DHT22;30340;52.004;5.908;2022-09-09T01:48:52;16.60;81.40
42037;DHT22;30340;52.004;5.908;2022-09-09T01:51:18;16.60;81.30
42037;DHT22;30340;52.004;5.908;2022-09-09T01:53:44;16.60;81.40
42037;DHT22;30340;52.004;5.908;2022-09-09T01:59:02;16.50;81.40
42037;DHT22;30340;52.004;5.908;2022-09-09T02:02:29;16.50;81.30
42037;DHT22;30340;52.004;5.908;2022-09-09T02:04:50;16.40;81.50
42037;DHT22;30340;52.004;5.908;2022-09-09T02:07:22;16.40;81.50
42037;DHT22;30340;52.004;5.908;2022-09-09T02:09:58;16.40;81.40
42037;DHT22;30340;52.004;5.908;2022-09-09T02:12:27;16.40;81.50
42037;DHT22;30340;52.004;5.908;2022-09-09T02:15:03;16.30;81.50
42037;DHT22;30340;52.004;5.908;2022-09-09T02:17:34;16.30;81.70
42037;DHT22;30340;52.004;5.908;2022-09-09T02:20:13;16.20;81.70
42037;DHT22;30340;52.004;5.908;2022-09-09T02:22:42;16.20;81.80
42037;DHT22;30340;52.004;5.908;2022-09-09T02:25:10;16.20;81.70
42037;DHT22;30340;52.004;5.908;2022-09-09T02:27:37;16.20;81.70
42037;DHT22;30340;52.004;5.908;2022-09-09T02:30:04;16.20;82.20
42037;DHT22;30340;52.004;5.908;2022-09-09T02:32:31;16.20;81.50
42037;DHT22;30340;52.004;5.908;2022-09-09T02:35:02;16.20;81.50
42037;DHT22;30340;52.004;5.908;2022-09-09T02:37:33;16.10;81.40
42037;DHT22;30340;52.004;5.908;2022-09-09T02:40:02;16.20;81.50
42037;DHT22;30340;52.004;5.908;2022-09-09T02:42:28;16.10;81.50
42037;DHT22;30340;52.004;5.908;2022-09-09T02:44:54;16.10;81.50
42037;DHT22;30340;52.004;5.908;2022-09-09T02:47:37;16.10;81.50
42037;DHT22;30340;52.004;5.908;2022-09-09T02:52:33;16.10;81.60
42037;DHT22;30340;52.004;5.908;2022-09-09T02:55:09;16.10;81.60
42037;DHT22;30340;52.004;5.908;2022-09-09T02:57:37;16.10;81.50
42037;DHT22;30340;52.004;5.908;2022-09-09T03:00:04;16.10;81.40
42037;DHT22;30340;52.004;5.908;2022-09-09T03:02:30;16.10;81.30
42037;DHT22;30340;52.004;5.908;2022-09-09T03:04:56;16.10;81.40
42037;DHT22;30340;52.004;5.908;2022-09-09T03:07:22;16.10;81.40
42037;DHT22;30340;52.004;5.908;2022-09-09T03:09:47;16.10;81.30
42037;DHT22;30340;52.004;5.908;2022-09-09T03:12:13;16.10;81.20
42037;DHT22;30340;52.004;5.908;2022-09-09T03:14:39;16.10;81.40
42037;DHT22;30340;52.004;5.908;2022-09-09T03:17:05;16.00;81.30
42037;DHT22;30340;52.004;5.908;2022-09-09T03:19:31;16.00;81.40
42037;DHT22;30340;52.004;5.908;2022-09-09T03:21:57;16.00;81.50
42037;DHT22;30340;52.004;5.908;2022-09-09T03:24:24;16.00;81.50
42037;DHT22;30340;52.004;5.908;2022-09-09T03:26:49;16.00;81.50
42037;DHT22;30340;52.004;5.908;2022-09-09T03:29:16;16.00;81.50
42037;DHT22;30340;52.004;5.908;2022-09-09T03:31:42;16.00;81.60
42037;DHT22;30340;52.004;5.908;2022-09-09T03:34:08;16.00;81.50
42037;DHT22;30340;52.004;5.908;2022-09-09T03:36:33;16.00;81.50
42037;DHT22;30340;52.004;5.908;2022-09-09T03:38:59;15.90;81.50
42037;DHT22;30340;52.004;5.908;2022-09-09T03:41:25;15.90;81.90
42037;DHT22;30340;52.004;5.908;2022-09-09T03:43:51;15.90;81.80
42037;DHT22;30340;52.004;5.908;2022-09-09T03:46:18;15.90;81.90
42037;DHT22;30340;52.004;5.908;2022-09-09T03:48:44;15.90;81.90
42037;DHT22;30340;52.004;5.908;2022-09-09T03:51:09;15.90;81.80
42037;DHT22;30340;52.004;5.908;2022-09-09T03:53:36;15.90;81.70
42037;DHT22;30340;52.004;5.908;2022-09-09T03:56:03;15.90;81.80
42037;DHT22;30340;52.004;5.908;2022-09-09T03:58:29;15.90;81.80
42037;DHT22;30340;52.004;5.908;2022-09-09T04:01:14;16.00;81.70
42037;DHT22;30340;52.004;5.908;2022-09-09T04:03:40;16.00;81.90
42037;DHT22;30340;52.004;5.908;2022-09-09T04:06:07;16.00;81.80
42037;DHT22;30340;52.004;5.908;2022-09-09T04:08:34;16.00;81.80
42037;DHT22;30340;52.004;5.908;2022-09-09T04:11:02;16.00;81.80
42037;DHT22;30340;52.004;5.908;2022-09-09T04:13:32;16.00;81.70
42037;DHT22;30340;52.004;5.908;2022-09-09T04:15:59;16.00;81.60
42037;DHT22;30340;52.004;5.908;2022-09-09T04:18:26;16.00;81.80
42037;DHT22;30340;52.004;5.908;2022-09-09T04:20:54;16.00;81.80
42037;DHT22;30340;52.004;5.908;2022-09-09T04:23:23;16.10;82.20
42037;DHT22;30340;52.004;5.908;2022-09-09T04:25:53;16.10;81.90
42037;DHT22;30340;52.004;5.908;2022-09-09T04:28:20;16.10;81.90
42037;DHT22;30340;52.004;5.908;2022-09-09T04:30:46;16.10;81.80
42037;DHT22;30340;52.004;5.908;2022-09-09T04:33:13;16.10;81.60
42037;DHT22;30340;52.004;5.908;2022-09-09T04:35:39;16.20;81.70
42037;DHT22;30340;52.004;5.908;2022-09-09T04:38:08;16.20;81.70
42037;DHT22;30340;52.004;5.908;2022-09-09T04:40:34;16.20;81.50
42037;DHT22;30340;52.004;5.908;2022-09-09T04:43:01;16.30;81.50
42037;DHT22;30340;52.004;5.908;2022-09-09T04:45:28;16.30;81.40
42037;DHT22;30340;52.004;5.908;2022-09-09T04:47:54;16.30;81.30
42037;DHT22;30340;52.004;5.908;2022-09-09T04:50:20;16.30;81.40
42037;DHT22;30340;52.004;5.908;2022-09-09T04:52:46;16.30;81.30
42037;DHT22;30340;52.004;5.908;2022-09-09T04:55:11;16.30;81.30
42037;DHT22;30340;52.004;5.908;2022-09-09T04:57:38;16.40;81.40
42037;DHT22;30340;52.004;5.908;2022-09-09T05:00:04;16.40;81.30
42037;DHT22;30340;52.004;5.908;2022-09-09T05:02:30;16.40;81.40
42037;DHT22;30340;52.004;5.908;2022-09-09T05:04:57;16.40;81.50
42037;DHT22;30340;52.004;5.908;2022-09-09T05:07:23;16.40;81.50
42037;DHT22;30340;52.004;5.908;2022-09-09T05:09:49;16.40;81.60
42037;DHT22;30340;52.004;5.908;2022-09-09T05:12:15;16.40;81.50
42037;DHT22;30340;52.004;5.908;2022-09-09T05:14:42;16.40;81.60
42037;DHT22;30340;52.004;5.908;2022-09-09T05:17:08;16.40;81.60
42037;DHT22;30340;52.004;5.908;2022-09-09T05:19:33;16.40;81.50
42037;DHT22;30340;52.004;5.908;2022-09-09T05:21:59;16.40;81.80
42037;DHT22;30340;52.004;5.908;2022-09-09T05:24:26;16.40;81.70
42037;DHT22;30340;52.004;5.908;2022-09-09T05:26:52;16.50;81.80
42037;DHT22;30340;52.004;5.908;2022-09-09T05:29:17;16.50;81.70
42037;DHT22;30340;52.004;5.908;2022-09-09T05:31:47;16.50;81.70
42037;DHT22;30340;52.004;5.908;2022-09-09T05:34:13;16.50;81.80
42037;DHT22;30340;52.004;5.908;2022-09-09T05:36:38;16.50;82.00
42037;DHT22;30340;52.004;5.908;2022-09-09T05:39:04;16.60;82.10
42037;DHT22;30340;52.004;5.908;2022-09-09T05:41:30;16.60;82.20
42037;DHT22;30340;52.004;5.908;2022-09-09T05:43:56;16.50;82.70
42037;DHT22;30340;52.004;5.908;2022-09-09T05:46:24;16.50;82.90
42037;DHT22;30340;52.004;5.908;2022-09-09T05:48:51;16.50;82.90
42037;DHT22;30340;52.004;5.908;2022-09-09T05:51:19;16.60;83.00
42037;DHT22;30340;52.004;5.908;2022-09-09T05:53:47;16.60;82.80
42037;DHT22;30340;52.004;5.908;2022-09-09T05:56:15;16.70;82.80
42037;DHT22;30340;52.004;5.908;2022-09-09T05:58:41;16.70;82.90
42037;DHT22;30340;52.004;5.908;2022-09-09T06:01:14;16.90;82.80
42037;DHT22;30340;52.004;5.908;2022-09-09T06:03:42;17.30;82.30
42037;DHT22;30340;52.004;5.908;2022-09-09T06:06:10;17.70;81.10
42037;DHT22;30340;52.004;5.908;2022-09-09T06:08:38;18.20;80.10
42037;DHT22;30340;52.004;5.908;2022-09-09T06:11:12;19.10;78.20
42037;DHT22;30340;52.004;5.908;2022-09-09T06:13:38;20.00;75.90
42037;DHT22;30340;52.004;5.908;2022-09-09T06:16:08;20.80;73.00
42037;DHT22;30340;52.004;5.908;2022-09-09T06:18:33;21.40;71.00
42037;DHT22;30340;52.004;5.908;2022-09-09T06:21:01;22.00;68.90
42037;DHT22;30340;52.004;5.908;2022-09-09T06:23:35;22.30;67.30
42037;DHT22;30340;52.004;5.908;2022-09-09T06:26:06;22.10;66.80
42037;DHT22;30340;52.004;5.908;2022-09-09T06:28:33;21.60;67.20
42037;DHT22;30340;52.004;5.908;2022-09-09T06:31:00;20.70;68.60
42037;DHT22;30340;52.004;5.908;2022-09-09T06:33:26;20.30;70.20
42037;DHT22;30340;52.004;5.908;2022-09-09T06:35:53;20.10;71.00
42037;DHT22;30340;52.004;5.908;2022-09-09T06:38:19;19.70;71.80
42037;DHT22;30340;52.004;5.908;2022-09-09T06:40:55;19.30;72.80
42037;DHT22;30340;52.004;5.908;2022-09-09T06:43:22;19.00;74.00
42037;DHT22;30340;52.004;5.908;2022-09-09T06:46:07;18.70;75.00
42037;DHT22;30340;52.004;5.908;2022-09-09T06:48:34;18.40;76.00
42037;DHT22;30340;52.004;5.908;2022-09-09T06:53:37;18.20;77.70
42037;DHT22;30340;52.004;5.908;2022-09-09T06:58:41;18.10;78.10
42037;DHT22;30340;52.004;5.908;2022-09-09T07:01:10;18.20;78.30
42037;DHT22;30340;52.004;5.908;2022-09-09T07:03:35;18.40;77.80
42037;DHT22;30340;52.004;5.908;2022-09-09T07:06:01;18.70;77.20
42037;DHT22;30340;52.004;5.908;2022-09-09T07:08:27;18.90;76.50
42037;DHT22;30340;52.004;5.908;2022-09-09T07:10:53;19.40;75.10
42037;DHT22;30340;52.004;5.908;2022-09-09T07:13:23;19.50;74.50
42037;DHT22;30340;52.004;5.908;2022-09-09T07:15:50;19.40;74.10
42037;DHT22;30340;52.004;5.908;2022-09-09T07:18:16;19.20;74.60
42037;DHT22;30340;52.004;5.908;2022-09-09T07:20:41;18.90;75.20
42037;DHT22;30340;52.004;5.908;2022-09-09T07:23:07;18.70;76.20
42037;DHT22;30340;52.004;5.908;2022-09-09T07:25:32;18.50;77.00
42037;DHT22;30340;52.004;5.908;2022-09-09T07:27:58;18.50;77.40
42037;DHT22;30340;52.004;5.908;2022-09-09T07:30:24;18.60;77.30
42037;DHT22;30340;52.004;5.908;2022-09-09T07:32:51;18.60;77.30
42037;DHT22;30340;52.004;5.908;2022-09-09T07:35:17;18.50;77.50
42037;DHT22;30340;52.004;5.908;2022-09-09T07:37:43;18.50;77.80
42037;DHT22;30340;52.004;5.908;2022-09-09T07:40:09;18.50;77.80
42037;DHT22;30340;52.004;5.908;2022-09-09T07:42:35;18.60;77.60
42037;DHT22;30340;52.004;5.908;2022-09-09T07:45:01;18.70;77.40
42037;DHT22;30340;52.004;5.908;2022-09-09T07:47:27;18.80;77.10
42037;DHT22;30340;52.004;5.908;2022-09-09T07:49:52;18.80;76.90
42037;DHT22;30340;52.004;5.908;2022-09-09T07:52:18;18.70;76.80
42037;DHT22;30340;52.004;5.908;2022-09-09T07:54:45;18.60;76.90
42037;DHT22;30340;52.004;5.908;2022-09-09T07:57:11;18.50;77.00
42037;DHT22;30340;52.004;5.908;2022-09-09T07:59:38;18.40;77.50
42037;DHT22;30340;52.004;5.908;2022-09-09T08:02:03;18.40;77.90
42037;DHT22;30340;52.004;5.908;2022-09-09T08:04:29;18.20;77.60
42037;DHT22;30340;52.004;5.908;2022-09-09T08:06:57;18.20;77.90
42037;DHT22;30340;52.004;5.908;2022-09-09T08:09:24;18.30;78.10
42037;DHT22;30340;52.004;5.908;2022-09-09T08:11:55;18.40;77.80
42037;DHT22;30340;52.004;5.908;2022-09-09T08:14:22;18.50;77.60
42037;DHT22;30340;52.004;5.908;2022-09-09T08:16:49;18.40;77.50
42037;DHT22;30340;52.004;5.908;2022-09-09T08:19:15;18.40;77.40
42037;DHT22;30340;52.004;5.908;2022-09-09T08:21:41;18.40;77.50
42037;DHT22;30340;52.004;5.908;2022-09-09T08:24:09;18.40;77.40
42037;DHT22;30340;52.004;5.908;2022-09-09T08:26:42;18.30;77.40
42037;DHT22;30340;52.004;5.908;2022-09-09T08:29:08;18.30;77.60
42037;DHT22;30340;52.004;5.908;2022-09-09T08:31:38;18.30;77.70
42037;DHT22;30340;52.004;5.908;2022-09-09T08:34:04;18.30;77.50
42037;DHT22;30340;52.004;5.908;2022-09-09T08:36:33;18.30;77.30
42037;DHT22;30340;52.004;5.908;2022-09-09T08:38:59;18.30;77.40
42037;DHT22;30340;52.004;5.908;2022-09-09T08:44:07;18.20;77.20
42037;DHT22;30340;52.004;5.908;2022-09-09T08:46:47;18.20;77.30
42037;DHT22;30340;52.004;5.908;2022-09-09T08:52:13;18.10;77.20
42037;DHT22;30340;52.004;5.908;2022-09-09T08:54:41;18.10;77.20
42037;DHT22;30340;52.004;5.908;2022-09-09T08:57:11;18.20;77.30
42037;DHT22;30340;52.004;5.908;2022-09-09T08:59:38;18.20;77.20
42037;DHT22;30340;52.004;5.908;2022-09-09T09:04:42;18.40;76.80
42037;DHT22;30340;52.004;5.908;2022-09-09T09:07:26;18.40;76.80
42037;DHT22;30340;52.004;5.908;2022-09-09T09:12:32;18.40;76.70
42037;DHT22;30340;52.004;5.908;2022-09-09T09:15:00;18.50;76.50
42037;DHT22;30340;52.004;5.908;2022-09-09T09:17:28;18.50;75.90
42037;DHT22;30340;52.004;5.908;2022-09-09T09:19:57;18.50;75.50
42037;DHT22;30340;52.004;5.908;2022-09-09T09:22:51;18.60;75.20
42037;DHT22;30340;52.004;5.908;2022-09-09T09:36:09;18.50;73.70
42037;DHT22;30340;52.004;5.908;2022-09-09T09:38:35;18.60;73.80
42037;DHT22;30340;52.004;5.908;2022-09-09T09:41:02;18.60;73.90
42037;DHT22;30340;52.004;5.908;2022-09-09T09:45:54;18.70;74.00
42037;DHT22;30340;52.004;5.908;2022-09-09T09:48:21;18.80;73.90
42037;DHT22;30340;52.004;5.908;2022-09-09T09:50:49;18.80;73.70
42037;DHT22;30340;52.004;5.908;2022-09-09T09:53:25;18.80;73.40
42037;DHT22;30340;52.004;5.908;2022-09-09T09:56:02;18.90;73.30
42037;DHT22;30340;52.004;5.908;2022-09-09T10:01:24;19.10;72.60
42037;DHT22;30340;52.004;5.908;2022-09-09T10:03:52;19.20;71.90
42037;DHT22;30340;52.004;5.908;2022-09-09T10:06:28;19.20;71.80
42037;DHT22;30340;52.004;5.908;2022-09-09T10:08:54;19.30;71.90
42037;DHT22;30340;52.004;5.908;2022-09-09T10:11:28;19.30;71.90
42037;DHT22;30340;52.004;5.908;2022-09-09T10:14:14;19.20;71.70
42037;DHT22;30340;52.004;5.908;2022-09-09T10:17:09;19.20;71.60
42037;DHT22;30340;52.004;5.908;2022-09-09T10:19:45;19.20;71.70
42037;DHT22;30340;52.004;5.908;2022-09-09T10:22:32;19.10;71.70
42037;DHT22;30340;52.004;5.908;2022-09-09T10:25:22;19.00;71.90
42037;DHT22;30340;52.004;5.908;2022-09-09T10:31:10;18.90;72.10
42037;DHT22;30340;52.004;5.908;2022-09-09T10:33:50;18.90;72.10
42037;DHT22;30340;52.004;5.908;2022-09-09T10:36:24;18.90;72.20
42037;DHT22;30340;52.004;5.908;2022-09-09T10:39:04;19.00;72.30
42037;DHT22;30340;52.004;5.908;2022-09-09T10:41:37;19.10;71.90
42037;DHT22;30340;52.004;5.908;2022-09-09T10:47:00;19.20;71.70
42037;DHT22;30340;52.004;5.908;2022-09-09T10:52:29;19.20;71.60
42037;DHT22;30340;52.004;5.908;2022-09-09T10:55:09;19.20;71.60
42037;DHT22;30340;52.004;5.908;2022-09-09T10:57:42;19.10;71.70
42037;DHT22;30340;52.004;5.908;2022-09-09T11:00:21;19.00;72.00
42037;DHT22;30340;52.004;5.908;2022-09-09T11:02:59;19.00;71.80
42037;DHT22;30340;52.004;5.908;2022-09-09T11:05:41;19.00;72.00
42037;DHT22;30340;52.004;5.908;2022-09-09T11:08:21;19.10;71.90
42037;DHT22;30340;52.004;5.908;2022-09-09T11:13:53;19.10;72.10
42037;DHT22;30340;52.004;5.908;2022-09-09T11:19:09;19.30;72.10
42037;DHT22;30340;52.004;5.908;2022-09-09T11:21:42;19.30;71.90
42037;DHT22;30340;52.004;5.908;2022-09-09T11:24:15;19.20;71.90
42037;DHT22;30340;52.004;5.908;2022-09-09T11:26:55;19.00;72.80
42037;DHT22;30340;52.004;5.908;2022-09-09T11:40:27;19.20;75.10
42037;DHT22;30340;52.004;5.908;2022-09-09T11:43:12;19.20;75.20
42037;DHT22;30340;52.004;5.908;2022-09-09T11:45:41;19.10;75.30
42037;DHT22;30340;52.004;5.908;2022-09-09T11:48:28;19.10;75.50
42037;DHT22;30340;52.004;5.908;2022-09-09T11:53:52;19.00;75.40
42037;DHT22;30340;52.004;5.908;2022-09-09T11:56:30;19.10;75.60
42037;DHT22;30340;52.004;5.908;2022-09-09T11:59:26;19.20;75.50
42037;DHT22;30340;52.004;5.908;2022-09-09T12:07:00;19.10;75.80
42037;DHT22;30340;52.004;5.908;2022-09-09T12:09:46;19.00;76.40
42037;DHT22;30340;52.004;5.908;2022-09-09T12:19:40;19.00;77.30
42037;DHT22;30340;52.004;5.908;2022-09-09T12:25:36;19.10;77.20
42037;DHT22;30340;52.004;5.908;2022-09-09T12:28:17;19.00;76.90
42037;DHT22;30340;52.004;5.908;2022-09-09T12:30:59;18.90;76.80
42037;DHT22;30340;52.004;5.908;2022-09-09T12:33:35;18.90;77.00
42037;DHT22;30340;52.004;5.908;2022-09-09T12:36:02;18.80;77.00
42037;DHT22;30340;52.004;5.908;2022-09-09T12:38:38;18.90;77.00
42037;DHT22;30340;52.004;5.908;2022-09-09T12:41:04;19.00;76.80
42037;DHT22;30340;52.004;5.908;2022-09-09T12:43:30;19.10;76.50
42037;DHT22;30340;52.004;5.908;2022-09-09T12:45:59;19.20;76.40
42037;DHT22;30340;52.004;5.908;2022-09-09T12:48:36;19.30;76.10
42037;DHT22;30340;52.004;5.908;2022-09-09T12:51:16;19.50;75.80
42037;DHT22;30340;52.004;5.908;2022-09-09T12:53:44;19.50;75.40
42037;DHT22;30340;52.004;5.908;2022-09-09T12:56:19;19.50;75.20
42037;DHT22;30340;52.004;5.908;2022-09-09T12:58:47;19.40;75.00
42037;DHT22;30340;52.004;5.908;2022-09-09T13:01:23;19.30;75.00
42037;DHT22;30340;52.004;5.908;2022-09-09T13:03:49;19.40;75.20
42037;DHT22;30340;52.004;5.908;2022-09-09T13:06:28;19.30;75.10
42037;DHT22;30340;52.004;5.908;2022-09-09T13:08:59;19.40;75.30
42037;DHT22;30340;52.004;5.908;2022-09-09T13:11:52;19.30;75.10
42037;DHT22;30340;52.004;5.908;2022-09-09T13:14:34;19.20;75.10
42037;DHT22;30340;52.004;5.908;2022-09-09T13:17:04;19.20;75.40
42037;DHT22;30340;52.004;5.908;2022-09-09T13:19:35;19.20;76.00
42037;DHT22;30340;52.004;5.908;2022-09-09T13:22:13;19.10;76.70
42037;DHT22;30340;52.004;5.908;2022-09-09T13:24:40;19.10;77.10
42037;DHT22;30340;52.004;5.908;2022-09-09T13:27:27;19.20;77.30
42037;DHT22;30340;52.004;5.908;2022-09-09T13:29:54;19.20;77.50
42037;DHT22;30340;52.004;5.908;2022-09-09T13:32:22;19.20;77.40
42037;DHT22;30340;52.004;5.908;2022-09-09T13:34:59;19.20;77.00
42037;DHT22;30340;52.004;5.908;2022-09-09T13:37:37;19.20;77.20
42037;DHT22;30340;52.004;5.908;2022-09-09T13:40:05;19.30;77.20
42037;DHT22;30340;52.004;5.908;2022-09-09T13:42:38;19.30;76.70
42037;DHT22;30340;52.004;5.908;2022-09-09T13:45:04;19.40;76.70
42037;DHT22;30340;52.004;5.908;2022-09-09T13:47:32;19.50;76.50
42037;DHT22;30340;52.004;5.908;2022-09-09T13:50:17;19.50;76.20
42037;DHT22;30340;52.004;5.908;2022-09-09T13:52:44;19.50;76.00
42037;DHT22;30340;52.004;5.908;2022-09-09T13:55:09;19.40;75.90
42037;DHT22;30340;52.004;5.908;2022-09-09T13:57:35;19.40;76.00
42037;DHT22;30340;52.004;5.908;2022-09-09T14:00:01;19.40;76.00
42037;DHT22;30340;52.004;5.908;2022-09-09T14:02:26;19.40;75.80
42037;DHT22;30340;52.004;5.908;2022-09-09T14:04:52;19.30;75.70
42037;DHT22;30340;52.004;5.908;2022-09-09T14:07:21;19.30;75.90
42037;DHT22;30340;52.004;5.908;2022-09-09T14:09:46;19.30;75.90
42037;DHT22;30340;52.004;5.908;2022-09-09T14:12:16;19.30;75.90
42037;DHT22;30340;52.004;5.908;2022-09-09T14:14:42;19.20;76.00
42037;DHT22;30340;52.004;5.908;2022-09-09T14:17:08;19.30;76.10
42037;DHT22;30340;52.004;5.908;2022-09-09T14:19:34;19.40;76.00
42037;DHT22;30340;52.004;5.908;2022-09-09T14:22:00;19.50;76.10
42037;DHT22;30340;52.004;5.908;2022-09-09T14:24:26;19.50;74.30
42037;DHT22;30340;52.004;5.908;2022-09-09T14:26:53;19.50;74.10
42037;DHT22;30340;52.004;5.908;2022-09-09T14:29:18;19.50;74.20
42037;DHT22;30340;52.004;5.908;2022-09-09T14:31:44;19.40;74.10
42037;DHT22;30340;52.004;5.908;2022-09-09T14:34:10;19.40;74.90
42037;DHT22;30340;52.004;5.908;2022-09-09T14:36:37;19.50;74.30
42037;DHT22;30340;52.004;5.908;2022-09-09T14:39:03;19.50;74.20
42037;DHT22;30340;52.004;5.908;2022-09-09T14:41:29;19.50;74.20
42037;DHT22;30340;52.004;5.908;2022-09-09T14:43:55;19.50;74.10
42037;DHT22;30340;52.004;5.908;2022-09-09T14:46:21;19.50;74.10
42037;DHT22;30340;52.004;5.908;2022-09-09T14:48:47;19.50;74.30
42037;DHT22;30340;52.004;5.908;2022-09-09T14:51:21;19.60;74.30
42037;DHT22;30340;52.004;5.908;2022-09-09T14:53:47;19.60;74.20
42037;DHT22;30340;52.004;5.908;2022-09-09T14:56:16;19.70;74.10
42037;DHT22;30340;52.004;5.908;2022-09-09T14:58:42;19.80;74.00
42037;DHT22;30340;52.004;5.908;2022-09-09T15:01:17;19.80;73.90
42037;DHT22;30340;52.004;5.908;2022-09-09T15:03:52;19.80;73.60
42037;DHT22;30340;52.004;5.908;2022-09-09T15:06:18;19.80;73.70
42037;DHT22;30340;52.004;5.908;2022-09-09T15:08:45;19.90;73.90
42037;DHT22;30340;52.004;5.908;2022-09-09T15:11:12;19.80;73.80
42037;DHT22;30340;52.004;5.908;2022-09-09T15:13:40;19.90;73.90
42037;DHT22;30340;52.004;5.908;2022-09-09T15:16:14;19.90;73.90
42037;DHT22;30340;52.004;5.908;2022-09-09T15:18:41;19.90;73.90
42037;DHT22;30340;52.004;5.908;2022-09-09T15:21:11;19.80;73.90
42037;DHT22;30340;52.004;5.908;2022-09-09T15:23:37;19.80;73.90
42037;DHT22;30340;52.004;5.908;2022-09-09T15:26:03;19.70;74.30
42037;DHT22;30340;52.004;5.908;2022-09-09T15:28:31;19.70;74.40
42037;DHT22;30340;52.004;5.908;2022-09-09T15:30:57;19.70;74.50
42037;DHT22;30340;52.004;5.908;2022-09-09T15:33:25;19.70;74.70
42037;DHT22;30340;52.004;5.908;2022-09-09T15:35:50;19.60;75.20
42037;DHT22;30340;52.004;5.908;2022-09-09T15:38:17;19.60;75.60
42037;DHT22;30340;52.004;5.908;2022-09-09T15:40:43;19.50;75.80
42037;DHT22;30340;52.004;5.908;2022-09-09T15:43:09;19.50;76.00
42037;DHT22;30340;52.004;5.908;2022-09-09T15:45:36;19.50;76.30
42037;DHT22;30340;52.004;5.908;2022-09-09T15:48:03;19.50;76.30
42037;DHT22;30340;52.004;5.908;2022-09-09T15:50:28;19.50;76.30
42037;DHT22;30340;52.004;5.908;2022-09-09T15:52:58;19.50;76.50
42037;DHT22;30340;52.004;5.908;2022-09-09T15:55:23;19.60;76.60
42037;DHT22;30340;52.004;5.908;2022-09-09T15:57:52;19.60;76.60
42037;DHT22;30340;52.004;5.908;2022-09-09T16:00:19;19.60;76.70
42037;DHT22;30340;52.004;5.908;2022-09-09T16:02:47;19.70;76.80
42037;DHT22;30340;52.004;5.908;2022-09-09T16:05:12;19.60;77.00
42037;DHT22;30340;52.004;5.908;2022-09-09T16:07:38;19.60;77.00
42037;DHT22;30340;52.004;5.908;2022-09-09T16:10:04;19.40;77.40
42037;DHT22;30340;52.004;5.908;2022-09-09T16:12:30;19.10;78.10
42037;DHT22;30340;52.004;5.908;2022-09-09T16:14:56;18.80;78.70
42037;DHT22;30340;52.004;5.908;2022-09-09T16:17:21;18.60;78.90
42037;DHT22;30340;52.004;5.908;2022-09-09T16:19:47;18.50;78.90
42037;DHT22;30340;52.004;5.908;2022-09-09T16:22:13;18.40;78.80
42037;DHT22;30340;52.004;5.908;2022-09-09T16:24:40;18.40;78.70
42037;DHT22;30340;52.004;5.908;2022-09-09T16:27:06;18.40;78.50
42037;DHT22;30340;52.004;5.908;2022-09-09T16:29:32;18.50;78.40
42037;DHT22;30340;52.004;5.908;2022-09-09T16:31:57;18.40;78.50
42037;DHT22;30340;52.004;5.908;2022-09-09T16:34:24;18.40;78.60
42037;DHT22;30340;52.004;5.908;2022-09-09T16:36:50;18.40;79.10
42037;DHT22;30340;52.004;5.908;2022-09-09T16:39:18;18.40;79.00
42037;DHT22;30340;52.004;5.908;2022-09-09T16:41:46;18.40;79.30
42037;DHT22;30340;52.004;5.908;2022-09-09T16:44:14;18.40;79.60
42037;DHT22;30340;52.004;5.908;2022-09-09T16:46:42;18.40;79.60
42037;DHT22;30340;52.004;5.908;2022-09-09T16:49:12;18.40;79.90
42037;DHT22;30340;52.004;5.908;2022-09-09T16:51:49;18.40;80.10
42037;DHT22;30340;52.004;5.908;2022-09-09T16:54:18;18.40;80.60
42037;DHT22;30340;52.004;5.908;2022-09-09T16:56:45;18.30;81.80
42037;DHT22;30340;52.004;5.908;2022-09-09T16:59:14;18.30;81.40
42037;DHT22;30340;52.004;5.908;2022-09-09T17:01:41;18.30;81.70
42037;DHT22;30340;52.004;5.908;2022-09-09T17:04:10;18.30;81.70
42037;DHT22;30340;52.004;5.908;2022-09-09T17:06:36;18.30;81.70
42037;DHT22;30340;52.004;5.908;2022-09-09T17:09:05;18.30;81.70
42037;DHT22;30340;52.004;5.908;2022-09-09T17:11:31;18.30;81.80
42037;DHT22;30340;52.004;5.908;2022-09-09T17:13:58;18.20;82.00
42037;DHT22;30340;52.004;5.908;2022-09-09T17:16:25;18.20;82.10
42037;DHT22;30340;52.004;5.908;2022-09-09T17:18:53;18.10;82.30
42037;DHT22;30340;52.004;5.908;2022-09-09T17:21:21;18.10;82.30
42037;DHT22;30340;52.004;5.908;2022-09-09T17:23:47;18.20;82.20
42037;DHT22;30340;52.004;5.908;2022-09-09T17:26:16;18.20;82.20
42037;DHT22;30340;52.004;5.908;2022-09-09T17:28:43;18.20;82.20
42037;DHT22;30340;52.004;5.908;2022-09-09T17:31:10;18.10;82.20
42037;DHT22;30340;52.004;5.908;2022-09-09T17:33:38;18.10;82.40
42037;DHT22;30340;52.004;5.908;2022-09-09T17:36:13;18.10;82.40